sensor_id;sensor_type;location;lat;lon;timestamp;P1;durP1;ratioP1;P2;durP2;ratioP2
22240;SDS011;11289;52.524;13.694;2022-08-11T00:02:26;3.67;;;1.40;;
22240;SDS011;11289;52.524;13.694;2022-08-11T00:05:12;2.30;;;1.50;;
22240;SDS011;11289;52.524;13.694;2022-08-11T00:07:44;3.90;;;1.40;;
22240;SDS011;11289;52.524;13.694;2022-08-11T00:10:11;3.60;;;2.35;;
22240;SDS011;11289;52.524;13.694;2022-08-11T00:12:39;4.72;;;1.58;;
22240;SDS011;11289;52.524;13.694;2022-08-11T00:15:07;3.80;;;1.17;;
22240;SDS011;11289;52.524;13.694;2022-08-11T00:17:33;1.80;;;1.40;;
22240;SDS011;11289;52.524;13.694;2022-08-11T00:20:02;2.05;;;1.55;;
22240;SDS011;11289;52.524;13.694;2022-08-11T00:22:31;2.80;;;1.67;;
22240;SDS011;11289;52.524;13.694;2022-08-11T00:24:57;3.33;;;1.60;;
22240;SDS011;11289;52.524;13.694;2022-08-11T00:27:33;4.60;;;1.60;;
22240;SDS011;11289;52.524;13.694;2022-08-11T00:30:00;4.13;;;1.63;;
22240;SDS011;11289;52.524;13.694;2022-08-11T00:32:26;4.40;;;1.80;;
22240;SDS011;11289;52.524;13.694;2022-08-11T00:34:53;3.85;;;1.50;;
22240;SDS011;11289;52.524;13.694;2022-08-11T00:37:21;4.15;;;1.52;;
22240;SDS011;11289;52.524;13.694;2022-08-11T00:39:49;1.63;;;1.30;;
22240;SDS011;11289;52.524;13.694;2022-08-11T00:42:20;2.42;;;1.30;;
22240;SDS011;11289;52.524;13.694;2022-08-11T00:45:02;4.00;;;1.40;;
22240;SDS011;11289;52.524;13.694;2022-08-11T00:53:11;2.67;;;1.63;;
22240;SDS011;11289;52.524;13.694;2022-08-11T01:15:54;2.17;;;1.58;;
22240;SDS011;11289;52.524;13.694;2022-08-11T01:21:34;2.38;;;1.77;;
22240;SDS011;11289;52.524;13.694;2022-08-11T02:12:38;3.55;;;2.08;;
22240;SDS011;11289;52.524;13.694;2022-08-11T02:18:12;3.20;;;1.80;;
22240;SDS011;11289;52.524;13.694;2022-08-11T02:20:56;4.50;;;2.42;;
22240;SDS011;11289;52.524;13.694;2022-08-11T02:23:54;3.40;;;1.60;;
22240;SDS011;11289;52.524;13.694;2022-08-11T02:29:46;3.67;;;1.75;;
22240;SDS011;11289;52.524;13.694;2022-08-11T02:32:19;4.38;;;1.70;;
22240;SDS011;11289;52.524;13.694;2022-08-11T02:35:19;5.80;;;2.00;;
22240;SDS011;11289;52.524;13.694;2022-08-11T02:38:10;4.78;;;2.70;;
22240;SDS011;11289;52.524;13.694;2022-08-11T02:40:49;4.88;;;2.70;;
22240;SDS011;11289;52.524;13.694;2022-08-11T02:43:29;6.00;;;2.55;;
22240;SDS011;11289;52.524;13.694;2022-08-11T02:46:14;7.80;;;2.17;;
22240;SDS011;11289;52.524;13.694;2022-08-11T02:52:09;3.53;;;2.05;;
22240;SDS011;11289;52.524;13.694;2022-08-11T02:54:43;6.32;;;2.30;;
22240;SDS011;11289;52.524;13.694;2022-08-11T03:02:49;5.22;;;2.08;;
22240;SDS011;11289;52.524;13.694;2022-08-11T03:05:32;5.85;;;2.40;;
22240;SDS011;11289;52.524;13.694;2022-08-11T03:13:33;3.17;;;2.05;;
22240;SDS011;11289;52.524;13.694;2022-08-11T03:16:45;3.85;;;2.00;;
22240;SDS011;11289;52.524;13.694;2022-08-11T03:19:36;4.55;;;2.50;;
22240;SDS011;11289;52.524;13.694;2022-08-11T03:22:46;3.85;;;2.35;;
22240;SDS011;11289;52.524;13.694;2022-08-11T03:25:20;4.03;;;2.00;;
22240;SDS011;11289;52.524;13.694;2022-08-11T03:27:57;7.47;;;2.50;;
22240;SDS011;11289;52.524;13.694;2022-08-11T03:30:32;3.25;;;2.03;;
22240;SDS011;11289;52.524;13.694;2022-08-11T03:33:26;4.57;;;2.05;;
22240;SDS011;11289;52.524;13.694;2022-08-11T03:36:17;3.53;;;2.05;;
22240;SDS011;11289;52.524;13.694;2022-08-11T03:39:17;3.75;;;2.35;;
22240;SDS011;11289;52.524;13.694;2022-08-11T03:41:58;6.38;;;2.35;;
22240;SDS011;11289;52.524;13.694;2022-08-11T03:59:36;5.32;;;2.85;;
22240;SDS011;11289;52.524;13.694;2022-08-11T04:05:22;4.32;;;2.30;;
22240;SDS011;11289;52.524;13.694;2022-08-11T04:38:56;9.05;;;3.13;;
22240;SDS011;11289;52.524;13.694;2022-08-11T04:41:52;5.22;;;2.80;;
22240;SDS011;11289;52.524;13.694;2022-08-11T04:47:49;9.25;;;3.22;;
22240;SDS011;11289;52.524;13.694;2022-08-11T04:56:39;3.78;;;3.17;;
22240;SDS011;11289;52.524;13.694;2022-08-11T05:00:16;6.32;;;3.03;;
22240;SDS011;11289;52.524;13.694;2022-08-11T05:06:09;5.90;;;2.75;;
22240;SDS011;11289;52.524;13.694;2022-08-11T05:14:28;5.50;;;3.20;;
22240;SDS011;11289;52.524;13.694;2022-08-11T05:17:16;4.85;;;4.15;;
22240;SDS011;11289;52.524;13.694;2022-08-11T05:20:08;5.88;;;3.40;;
22240;SDS011;11289;52.524;13.694;2022-08-11T05:22:54;10.77;;;4.40;;
22240;SDS011;11289;52.524;13.694;2022-08-11T05:25:43;7.22;;;3.63;;
22240;SDS011;11289;52.524;13.694;2022-08-11T05:28:41;7.20;;;4.07;;
22240;SDS011;11289;52.524;13.694;2022-08-11T05:31:37;6.55;;;3.83;;
22240;SDS011;11289;52.524;13.694;2022-08-11T05:34:27;7.75;;;3.92;;
22240;SDS011;11289;52.524;13.694;2022-08-11T05:37:18;8.48;;;3.72;;
22240;SDS011;11289;52.524;13.694;2022-08-11T05:39:55;6.75;;;4.15;;
22240;SDS011;11289;52.524;13.694;2022-08-11T05:42:47;6.05;;;4.07;;
22240;SDS011;11289;52.524;13.694;2022-08-11T05:45:33;7.70;;;4.20;;
22240;SDS011;11289;52.524;13.694;2022-08-11T05:48:19;5.55;;;4.40;;
22240;SDS011;11289;52.524;13.694;2022-08-11T05:51:04;7.15;;;4.30;;
22240;SDS011;11289;52.524;13.694;2022-08-11T05:53:54;6.20;;;3.92;;
22240;SDS011;11289;52.524;13.694;2022-08-11T05:56:46;6.93;;;4.38;;
22240;SDS011;11289;52.524;13.694;2022-08-11T05:59:18;7.10;;;4.55;;
22240;SDS011;11289;52.524;13.694;2022-08-11T06:01:45;4.72;;;3.75;;
22240;SDS011;11289;52.524;13.694;2022-08-11T06:04:17;6.13;;;4.47;;
22240;SDS011;11289;52.524;13.694;2022-08-11T06:07:06;4.45;;;3.97;;
22240;SDS011;11289;52.524;13.694;2022-08-11T06:12:27;9.25;;;4.45;;
22240;SDS011;11289;52.524;13.694;2022-08-11T06:14:56;5.38;;;4.00;;
22240;SDS011;11289;52.524;13.694;2022-08-11T06:17:29;7.05;;;4.22;;
22240;SDS011;11289;52.524;13.694;2022-08-11T06:20:01;6.38;;;4.05;;
22240;SDS011;11289;52.524;13.694;2022-08-11T06:22:28;9.40;;;4.70;;
22240;SDS011;11289;52.524;13.694;2022-08-11T06:24:56;5.82;;;3.90;;
22240;SDS011;11289;52.524;13.694;2022-08-11T06:27:24;7.32;;;4.47;;
22240;SDS011;11289;52.524;13.694;2022-08-11T06:29:53;9.27;;;4.55;;
22240;SDS011;11289;52.524;13.694;2022-08-11T06:32:22;6.20;;;4.47;;
22240;SDS011;11289;52.524;13.694;2022-08-11T06:43:30;5.18;;;3.63;;
22240;SDS011;11289;52.524;13.694;2022-08-11T06:46:10;13.30;;;5.00;;
22240;SDS011;11289;52.524;13.694;2022-08-11T06:48:39;8.55;;;3.65;;
22240;SDS011;11289;52.524;13.694;2022-08-11T06:51:09;9.27;;;3.83;;
22240;SDS011;11289;52.524;13.694;2022-08-11T06:53:45;12.30;;;4.13;;
22240;SDS011;11289;52.524;13.694;2022-08-11T06:56:13;10.48;;;3.88;;
22240;SDS011;11289;52.524;13.694;2022-08-11T06:59:05;9.00;;;3.58;;
22240;SDS011;11289;52.524;13.694;2022-08-11T07:13:23;4.90;;;3.17;;
22240;SDS011;11289;52.524;13.694;2022-08-11T07:16:09;6.40;;;3.25;;
22240;SDS011;11289;52.524;13.694;2022-08-11T07:18:39;8.70;;;3.70;;
22240;SDS011;11289;52.524;13.694;2022-08-11T07:21:28;6.90;;;3.78;;
22240;SDS011;11289;52.524;13.694;2022-08-11T07:24:21;7.38;;;3.53;;
22240;SDS011;11289;52.524;13.694;2022-08-11T07:27:11;3.70;;;2.92;;
22240;SDS011;11289;52.524;13.694;2022-08-11T07:30:00;8.98;;;3.00;;
22240;SDS011;11289;52.524;13.694;2022-08-11T07:32:29;7.35;;;3.45;;
22240;SDS011;11289;52.524;13.694;2022-08-11T07:35:06;6.03;;;2.58;;
22240;SDS011;11289;52.524;13.694;2022-08-11T07:37:37;7.43;;;3.30;;
22240;SDS011;11289;52.524;13.694;2022-08-11T07:40:06;5.80;;;2.88;;
22240;SDS011;11289;52.524;13.694;2022-08-11T07:42:33;3.15;;;2.42;;
22240;SDS011;11289;52.524;13.694;2022-08-11T07:45:04;5.07;;;3.22;;
22240;SDS011;11289;52.524;13.694;2022-08-11T07:47:50;7.18;;;3.17;;
22240;SDS011;11289;52.524;13.694;2022-08-11T07:50:40;6.10;;;3.08;;
22240;SDS011;11289;52.524;13.694;2022-08-11T07:53:26;5.45;;;3.20;;
22240;SDS011;11289;52.524;13.694;2022-08-11T07:55:54;5.47;;;2.97;;
22240;SDS011;11289;52.524;13.694;2022-08-11T07:58:22;4.32;;;2.80;;
22240;SDS011;11289;52.524;13.694;2022-08-11T08:01:07;4.90;;;2.65;;
22240;SDS011;11289;52.524;13.694;2022-08-11T08:03:54;3.28;;;2.05;;
22240;SDS011;11289;52.524;13.694;2022-08-11T08:06:41;3.92;;;2.33;;
22240;SDS011;11289;52.524;13.694;2022-08-11T08:09:26;3.28;;;2.10;;
22240;SDS011;11289;52.524;13.694;2022-08-11T08:12:11;7.65;;;2.40;;
22240;SDS011;11289;52.524;13.694;2022-08-11T08:14:57;3.55;;;2.33;;
22240;SDS011;11289;52.524;13.694;2022-08-11T08:17:42;4.63;;;2.58;;
22240;SDS011;11289;52.524;13.694;2022-08-11T08:20:15;6.68;;;2.55;;
22240;SDS011;11289;52.524;13.694;2022-08-11T08:22:44;5.28;;;2.08;;
22240;SDS011;11289;52.524;13.694;2022-08-11T08:25:14;4.20;;;1.98;;
22240;SDS011;11289;52.524;13.694;2022-08-11T08:27:41;4.38;;;2.42;;
22240;SDS011;11289;52.524;13.694;2022-08-11T08:30:09;2.55;;;2.08;;
22240;SDS011;11289;52.524;13.694;2022-08-11T08:32:55;4.32;;;2.22;;
22240;SDS011;11289;52.524;13.694;2022-08-11T08:35:23;4.68;;;2.13;;
22240;SDS011;11289;52.524;13.694;2022-08-11T08:37:49;3.58;;;2.15;;
22240;SDS011;11289;52.524;13.694;2022-08-11T08:40:16;3.83;;;2.10;;
22240;SDS011;11289;52.524;13.694;2022-08-11T08:42:50;3.58;;;1.85;;
22240;SDS011;11289;52.524;13.694;2022-08-11T08:45:19;2.60;;;1.95;;
22240;SDS011;11289;52.524;13.694;2022-08-11T08:47:46;2.45;;;1.90;;
22240;SDS011;11289;52.524;13.694;2022-08-11T08:50:17;5.80;;;2.28;;
22240;SDS011;11289;52.524;13.694;2022-08-11T08:52:49;5.20;;;2.20;;
22240;SDS011;11289;52.524;13.694;2022-08-11T08:55:18;4.10;;;2.03;;
22240;SDS011;11289;52.524;13.694;2022-08-11T08:57:44;4.53;;;2.22;;
22240;SDS011;11289;52.524;13.694;2022-08-11T09:00:15;3.53;;;1.98;;
22240;SDS011;11289;52.524;13.694;2022-08-11T09:02:43;4.63;;;2.38;;
22240;SDS011;11289;52.524;13.694;2022-08-11T09:05:09;3.92;;;2.13;;
22240;SDS011;11289;52.524;13.694;2022-08-11T09:07:36;3.35;;;2.05;;
22240;SDS011;11289;52.524;13.694;2022-08-11T09:10:02;3.65;;;1.85;;
22240;SDS011;11289;52.524;13.694;2022-08-11T09:12:30;5.35;;;2.03;;
22240;SDS011;11289;52.524;13.694;2022-08-11T09:14:58;6.25;;;2.20;;
22240;SDS011;11289;52.524;13.694;2022-08-11T09:17:24;3.47;;;2.15;;
22240;SDS011;11289;52.524;13.694;2022-08-11T09:19:59;3.47;;;2.00;;
22240;SDS011;11289;52.524;13.694;2022-08-11T09:22:31;3.83;;;1.77;;
22240;SDS011;11289;52.524;13.694;2022-08-11T09:25:18;4.68;;;2.17;;
22240;SDS011;11289;52.524;13.694;2022-08-11T09:28:04;6.80;;;2.00;;
22240;SDS011;11289;52.524;13.694;2022-08-11T09:30:31;4.38;;;2.20;;
22240;SDS011;11289;52.524;13.694;2022-08-11T09:32:59;7.13;;;2.03;;
22240;SDS011;11289;52.524;13.694;2022-08-11T09:35:30;3.97;;;1.83;;
22240;SDS011;11289;52.524;13.694;2022-08-11T09:37:58;2.65;;;1.65;;
22240;SDS011;11289;52.524;13.694;2022-08-11T09:40:47;4.63;;;2.15;;
22240;SDS011;11289;52.524;13.694;2022-08-11T09:43:14;3.88;;;1.85;;
22240;SDS011;11289;52.524;13.694;2022-08-11T09:46:01;5.10;;;1.80;;
22240;SDS011;11289;52.524;13.694;2022-08-11T09:48:29;5.18;;;1.90;;
22240;SDS011;11289;52.524;13.694;2022-08-11T09:51:04;3.53;;;1.70;;
22240;SDS011;11289;52.524;13.694;2022-08-11T09:53:34;3.03;;;1.73;;
22240;SDS011;11289;52.524;13.694;2022-08-11T09:56:03;4.60;;;1.80;;
22240;SDS011;11289;52.524;13.694;2022-08-11T09:58:50;6.47;;;1.67;;
22240;SDS011;11289;52.524;13.694;2022-08-11T10:01:16;3.17;;;1.52;;
22240;SDS011;11289;52.524;13.694;2022-08-11T10:03:53;4.10;;;1.65;;
22240;SDS011;11289;52.524;13.694;2022-08-11T10:06:39;4.63;;;2.10;;
22240;SDS011;11289;52.524;13.694;2022-08-11T10:09:26;3.88;;;1.77;;
22240;SDS011;11289;52.524;13.694;2022-08-11T10:11:55;2.90;;;1.80;;
22240;SDS011;11289;52.524;13.694;2022-08-11T10:14:22;4.72;;;1.92;;
22240;SDS011;11289;52.524;13.694;2022-08-11T10:17:08;3.50;;;1.85;;
22240;SDS011;11289;52.524;13.694;2022-08-11T10:19:34;3.53;;;1.45;;
22240;SDS011;11289;52.524;13.694;2022-08-11T10:22:02;2.25;;;1.60;;
22240;SDS011;11289;52.524;13.694;2022-08-11T10:24:47;3.30;;;1.33;;
22240;SDS011;11289;52.524;13.694;2022-08-11T10:27:32;2.70;;;1.50;;
22240;SDS011;11289;52.524;13.694;2022-08-11T10:29:58;2.83;;;1.80;;
22240;SDS011;11289;52.524;13.694;2022-08-11T10:32:43;5.03;;;1.60;;
22240;SDS011;11289;52.524;13.694;2022-08-11T10:35:28;3.63;;;1.70;;
22240;SDS011;11289;52.524;13.694;2022-08-11T10:37:55;4.15;;;1.55;;
22240;SDS011;11289;52.524;13.694;2022-08-11T10:40:22;2.90;;;1.52;;
22240;SDS011;11289;52.524;13.694;2022-08-11T10:42:58;2.97;;;1.67;;
22240;SDS011;11289;52.524;13.694;2022-08-11T10:45:30;4.82;;;1.60;;
22240;SDS011;11289;52.524;13.694;2022-08-11T10:48:16;4.53;;;1.83;;
22240;SDS011;11289;52.524;13.694;2022-08-11T10:50:48;7.47;;;1.85;;
22240;SDS011;11289;52.524;13.694;2022-08-11T10:53:33;4.15;;;1.52;;
22240;SDS011;11289;52.524;13.694;2022-08-11T10:56:18;5.07;;;2.15;;
22240;SDS011;11289;52.524;13.694;2022-08-11T10:59:04;3.83;;;1.90;;
22240;SDS011;11289;52.524;13.694;2022-08-11T11:01:34;4.28;;;1.83;;
22240;SDS011;11289;52.524;13.694;2022-08-11T11:04:15;5.25;;;1.73;;
22240;SDS011;11289;52.524;13.694;2022-08-11T11:09:23;2.58;;;1.92;;
22240;SDS011;11289;52.524;13.694;2022-08-11T11:11:55;2.05;;;1.38;;
22240;SDS011;11289;52.524;13.694;2022-08-11T11:14:44;2.72;;;1.30;;
22240;SDS011;11289;52.524;13.694;2022-08-11T11:17:34;3.78;;;1.75;;
22240;SDS011;11289;52.524;13.694;2022-08-11T11:20:22;2.78;;;1.45;;
22240;SDS011;11289;52.524;13.694;2022-08-11T11:22:52;3.00;;;1.55;;
22240;SDS011;11289;52.524;13.694;2022-08-11T11:25:22;2.70;;;1.60;;
22240;SDS011;11289;52.524;13.694;2022-08-11T11:33:17;5.53;;;1.80;;
22240;SDS011;11289;52.524;13.694;2022-08-11T11:38:35;3.38;;;1.50;;
22240;SDS011;11289;52.524;13.694;2022-08-11T11:41:02;2.65;;;1.40;;
22240;SDS011;11289;52.524;13.694;2022-08-11T11:43:46;2.10;;;1.60;;
22240;SDS011;11289;52.524;13.694;2022-08-11T11:46:12;3.63;;;1.50;;
22240;SDS011;11289;52.524;13.694;2022-08-11T11:48:38;1.95;;;1.27;;
22240;SDS011;11289;52.524;13.694;2022-08-11T11:51:04;5.30;;;1.65;;
22240;SDS011;11289;52.524;13.694;2022-08-11T11:53:31;2.45;;;1.13;;
22240;SDS011;11289;52.524;13.694;2022-08-11T11:55:57;2.75;;;1.10;;
22240;SDS011;11289;52.524;13.694;2022-08-11T11:58:24;5.60;;;1.85;;
22240;SDS011;11289;52.524;13.694;2022-08-11T12:01:10;4.28;;;1.30;;
22240;SDS011;11289;52.524;13.694;2022-08-11T12:03:44;3.45;;;1.10;;
22240;SDS011;11289;52.524;13.694;2022-08-11T12:06:13;4.68;;;1.40;;
22240;SDS011;11289;52.524;13.694;2022-08-11T12:08:40;6.25;;;1.23;;
22240;SDS011;11289;52.524;13.694;2022-08-11T12:11:09;3.90;;;1.77;;
22240;SDS011;11289;52.524;13.694;2022-08-11T12:13:56;3.08;;;1.20;;
22240;SDS011;11289;52.524;13.694;2022-08-11T12:16:24;1.92;;;1.27;;
22240;SDS011;11289;52.524;13.694;2022-08-11T12:18:52;2.97;;;0.98;;
22240;SDS011;11289;52.524;13.694;2022-08-11T12:21:21;2.28;;;1.33;;
22240;SDS011;11289;52.524;13.694;2022-08-11T12:23:48;3.88;;;1.40;;
22240;SDS011;11289;52.524;13.694;2022-08-11T12:26:34;1.80;;;0.90;;
22240;SDS011;11289;52.524;13.694;2022-08-11T12:29:17;3.40;;;1.63;;
22240;SDS011;11289;52.524;13.694;2022-08-11T12:31:44;1.75;;;1.17;;
22240;SDS011;11289;52.524;13.694;2022-08-11T12:34:11;1.52;;;1.00;;
22240;SDS011;11289;52.524;13.694;2022-08-11T12:36:42;3.28;;;1.20;;
22240;SDS011;11289;52.524;13.694;2022-08-11T12:39:16;2.47;;;0.90;;
22240;SDS011;11289;52.524;13.694;2022-08-11T12:41:44;4.22;;;1.00;;
22240;SDS011;11289;52.524;13.694;2022-08-11T12:44:29;2.75;;;1.30;;
22240;SDS011;11289;52.524;13.694;2022-08-11T12:47:18;9.88;;;1.80;;
22240;SDS011;11289;52.524;13.694;2022-08-11T12:49:48;2.25;;;1.10;;
22240;SDS011;11289;52.524;13.694;2022-08-11T12:52:35;2.88;;;1.02;;
22240;SDS011;11289;52.524;13.694;2022-08-11T12:55:11;3.20;;;1.20;;
22240;SDS011;11289;52.524;13.694;2022-08-11T12:57:58;2.00;;;0.90;;
22240;SDS011;11289;52.524;13.694;2022-08-11T13:00:41;3.17;;;0.90;;
22240;SDS011;11289;52.524;13.694;2022-08-11T13:03:28;3.03;;;1.23;;
22240;SDS011;11289;52.524;13.694;2022-08-11T13:06:16;5.88;;;1.05;;
22240;SDS011;11289;52.524;13.694;2022-08-11T13:08:43;5.10;;;1.33;;
22240;SDS011;11289;52.524;13.694;2022-08-11T13:11:10;1.23;;;0.80;;
22240;SDS011;11289;52.524;13.694;2022-08-11T13:13:55;2.45;;;0.98;;
22240;SDS011;11289;52.524;13.694;2022-08-11T13:16:22;1.30;;;1.00;;
22240;SDS011;11289;52.524;13.694;2022-08-11T13:19:18;2.45;;;0.90;;
22240;SDS011;11289;52.524;13.694;2022-08-11T13:21:46;1.52;;;1.00;;
22240;SDS011;11289;52.524;13.694;2022-08-11T13:24:13;4.55;;;1.20;;
22240;SDS011;11289;52.524;13.694;2022-08-11T13:26:39;2.22;;;1.00;;
22240;SDS011;11289;52.524;13.694;2022-08-11T13:29:07;3.05;;;0.93;;
22240;SDS011;11289;52.524;13.694;2022-08-11T13:31:34;4.68;;;1.25;;
22240;SDS011;11289;52.524;13.694;2022-08-11T13:34:00;1.33;;;0.82;;
22240;SDS011;11289;52.524;13.694;2022-08-11T13:36:27;3.35;;;0.90;;
22240;SDS011;11289;52.524;13.694;2022-08-11T13:38:53;1.92;;;1.08;;
22240;SDS011;11289;52.524;13.694;2022-08-11T13:41:22;2.78;;;0.77;;
22240;SDS011;11289;52.524;13.694;2022-08-11T13:44:03;1.50;;;0.90;;
22240;SDS011;11289;52.524;13.694;2022-08-11T13:46:30;2.90;;;0.85;;
22240;SDS011;11289;52.524;13.694;2022-08-11T13:48:58;1.10;;;0.98;;
22240;SDS011;11289;52.524;13.694;2022-08-11T13:51:24;2.10;;;0.75;;
22240;SDS011;11289;52.524;13.694;2022-08-11T13:54:01;4.95;;;0.93;;
22240;SDS011;11289;52.524;13.694;2022-08-11T13:56:29;1.27;;;0.88;;
22240;SDS011;11289;52.524;13.694;2022-08-11T13:58:56;3.70;;;0.88;;
22240;SDS011;11289;52.524;13.694;2022-08-11T14:01:31;1.17;;;0.73;;
22240;SDS011;11289;52.524;13.694;2022-08-11T14:04:02;3.20;;;1.30;;
22240;SDS011;11289;52.524;13.694;2022-08-11T14:06:37;1.92;;;0.70;;
22240;SDS011;11289;52.524;13.694;2022-08-11T14:09:09;1.73;;;0.90;;
22240;SDS011;11289;52.524;13.694;2022-08-11T14:11:36;2.55;;;0.80;;
22240;SDS011;11289;52.524;13.694;2022-08-11T14:14:26;1.10;;;0.60;;
22240;SDS011;11289;52.524;13.694;2022-08-11T14:16:57;1.57;;;0.80;;
22240;SDS011;11289;52.524;13.694;2022-08-11T14:19:29;2.55;;;0.60;;
22240;SDS011;11289;52.524;13.694;2022-08-11T14:21:59;2.38;;;0.95;;
22240;SDS011;11289;52.524;13.694;2022-08-11T14:24:42;1.30;;;0.80;;
22240;SDS011;11289;52.524;13.694;2022-08-11T14:27:13;3.80;;;0.82;;
22240;SDS011;11289;52.524;13.694;2022-08-11T14:29:41;0.98;;;0.50;;
22240;SDS011;11289;52.524;13.694;2022-08-11T14:32:09;2.88;;;0.80;;
22240;SDS011;11289;52.524;13.694;2022-08-11T14:34:39;1.83;;;0.85;;
22240;SDS011;11289;52.524;13.694;2022-08-11T14:37:08;0.70;;;0.70;;
22240;SDS011;11289;52.524;13.694;2022-08-11T14:39:46;1.55;;;0.80;;
22240;SDS011;11289;52.524;13.694;2022-08-11T14:42:19;1.20;;;0.70;;
22240;SDS011;11289;52.524;13.694;2022-08-11T14:45:05;3.00;;;0.77;;
22240;SDS011;11289;52.524;13.694;2022-08-11T14:48:02;2.15;;;0.82;;
22240;SDS011;11289;52.524;13.694;2022-08-11T14:50:32;1.42;;;0.70;;
22240;SDS011;11289;52.524;13.694;2022-08-11T14:53:02;3.88;;;0.77;;
22240;SDS011;11289;52.524;13.694;2022-08-11T14:55:36;4.45;;;0.80;;
22240;SDS011;11289;52.524;13.694;2022-08-11T14:58:23;3.90;;;0.80;;
22240;SDS011;11289;52.524;13.694;2022-08-11T15:00:53;3.15;;;0.82;;
22240;SDS011;11289;52.524;13.694;2022-08-11T15:03:24;1.75;;;0.82;;
22240;SDS011;11289;52.524;13.694;2022-08-11T15:05:52;4.22;;;0.90;;
22240;SDS011;11289;52.524;13.694;2022-08-11T15:08:20;1.58;;;0.60;;
22240;SDS011;11289;52.524;13.694;2022-08-11T15:11:10;1.27;;;0.80;;
22240;SDS011;11289;52.524;13.694;2022-08-11T15:13:55;0.90;;;0.68;;
22240;SDS011;11289;52.524;13.694;2022-08-11T15:16:23;2.97;;;0.63;;
22240;SDS011;11289;52.524;13.694;2022-08-11T15:19:08;2.38;;;0.80;;
22240;SDS011;11289;52.524;13.694;2022-08-11T15:21:34;1.85;;;0.60;;
22240;SDS011;11289;52.524;13.694;2022-08-11T15:24:18;0.85;;;0.60;;
22240;SDS011;11289;52.524;13.694;2022-08-11T15:26:44;1.98;;;0.52;;
22240;SDS011;11289;52.524;13.694;2022-08-11T15:29:31;2.10;;;0.50;;
22240;SDS011;11289;52.524;13.694;2022-08-11T15:32:18;1.73;;;0.55;;
22240;SDS011;11289;52.524;13.694;2022-08-11T15:35:20;2.35;;;0.80;;
22240;SDS011;11289;52.524;13.694;2022-08-11T15:37:59;0.50;;;0.45;;
22240;SDS011;11289;52.524;13.694;2022-08-11T15:40:28;0.80;;;0.68;;
22240;SDS011;11289;52.524;13.694;2022-08-11T15:46:19;1.08;;;0.73;;
22240;SDS011;11289;52.524;13.694;2022-08-11T15:49:07;1.30;;;0.73;;
22240;SDS011;11289;52.524;13.694;2022-08-11T15:51:40;2.15;;;0.60;;
22240;SDS011;11289;52.524;13.694;2022-08-11T15:54:10;1.58;;;0.70;;
22240;SDS011;11289;52.524;13.694;2022-08-11T15:56:43;1.75;;;0.60;;
22240;SDS011;11289;52.524;13.694;2022-08-11T15:59:13;2.35;;;0.68;;
22240;SDS011;11289;52.524;13.694;2022-08-11T16:02:00;3.33;;;0.63;;
22240;SDS011;11289;52.524;13.694;2022-08-11T16:05:00;1.23;;;0.60;;
22240;SDS011;11289;52.524;13.694;2022-08-11T16:07:28;3.70;;;0.77;;
22240;SDS011;11289;52.524;13.694;2022-08-11T16:09:58;1.58;;;0.63;;
22240;SDS011;11289;52.524;13.694;2022-08-11T16:15:02;1.70;;;0.73;;
22240;SDS011;11289;52.524;13.694;2022-08-11T16:17:49;1.27;;;0.50;;
22240;SDS011;11289;52.524;13.694;2022-08-11T16:20:18;2.65;;;0.60;;
22240;SDS011;11289;52.524;13.694;2022-08-11T16:22:45;1.95;;;0.70;;
22240;SDS011;11289;52.524;13.694;2022-08-11T16:25:18;2.58;;;0.90;;
22240;SDS011;11289;52.524;13.694;2022-08-11T16:27:50;0.80;;;0.52;;
22240;SDS011;11289;52.524;13.694;2022-08-11T16:30:31;0.80;;;0.60;;
22240;SDS011;11289;52.524;13.694;2022-08-11T16:32:58;1.50;;;0.75;;
22240;SDS011;11289;52.524;13.694;2022-08-11T16:35:28;3.17;;;0.85;;
22240;SDS011;11289;52.524;13.694;2022-08-11T16:38:14;1.17;;;0.60;;
22240;SDS011;11289;52.524;13.694;2022-08-11T16:41:00;1.88;;;0.70;;
22240;SDS011;11289;52.524;13.694;2022-08-11T16:44:05;1.35;;;0.88;;
22240;SDS011;11289;52.524;13.694;2022-08-11T16:46:50;2.70;;;0.90;;
22240;SDS011;11289;52.524;13.694;2022-08-11T16:51:59;1.85;;;0.95;;
22240;SDS011;11289;52.524;13.694;2022-08-11T16:54:28;2.17;;;1.00;;
22240;SDS011;11289;52.524;13.694;2022-08-11T16:56:55;1.48;;;0.70;;
22240;SDS011;11289;52.524;13.694;2022-08-11T16:59:42;3.28;;;0.80;;
22240;SDS011;11289;52.524;13.694;2022-08-11T17:02:11;2.78;;;0.80;;
22240;SDS011;11289;52.524;13.694;2022-08-11T17:05:14;4.20;;;0.90;;
22240;SDS011;11289;52.524;13.694;2022-08-11T17:08:01;2.63;;;0.80;;
22240;SDS011;11289;52.524;13.694;2022-08-11T17:10:51;2.45;;;0.85;;
22240;SDS011;11289;52.524;13.694;2022-08-11T17:13:51;1.95;;;0.70;;
22240;SDS011;11289;52.524;13.694;2022-08-11T17:16:27;2.78;;;0.80;;
22240;SDS011;11289;52.524;13.694;2022-08-11T17:21:44;3.45;;;1.25;;
22240;SDS011;11289;52.524;13.694;2022-08-11T17:24:30;2.97;;;1.10;;
22240;SDS011;11289;52.524;13.694;2022-08-11T17:26:58;3.90;;;0.88;;
22240;SDS011;11289;52.524;13.694;2022-08-11T17:32:04;1.88;;;0.80;;
22240;SDS011;11289;52.524;13.694;2022-08-11T17:34:51;3.60;;;1.10;;
22240;SDS011;11289;52.524;13.694;2022-08-11T17:37:39;1.73;;;1.08;;
22240;SDS011;11289;52.524;13.694;2022-08-11T17:40:07;1.67;;;0.88;;
22240;SDS011;11289;52.524;13.694;2022-08-11T17:42:36;1.05;;;0.80;;
22240;SDS011;11289;52.524;13.694;2022-08-11T17:45:22;1.60;;;1.00;;
22240;SDS011;11289;52.524;13.694;2022-08-11T17:48:07;2.70;;;0.88;;
22240;SDS011;11289;52.524;13.694;2022-08-11T17:51:11;4.50;;;1.10;;
22240;SDS011;11289;52.524;13.694;2022-08-11T17:54:01;2.78;;;0.80;;
22240;SDS011;11289;52.524;13.694;2022-08-11T17:56:46;3.28;;;1.05;;
22240;SDS011;11289;52.524;13.694;2022-08-11T17:59:31;1.58;;;0.93;;
22240;SDS011;11289;52.524;13.694;2022-08-11T18:02:18;2.28;;;0.90;;
22240;SDS011;11289;52.524;13.694;2022-08-11T18:05:17;4.25;;;0.82;;
22240;SDS011;11289;52.524;13.694;2022-08-11T18:07:44;1.13;;;0.70;;
22240;SDS011;11289;52.524;13.694;2022-08-11T18:10:31;4.28;;;1.08;;
22240;SDS011;11289;52.524;13.694;2022-08-11T18:13:17;1.33;;;0.75;;
22240;SDS011;11289;52.524;13.694;2022-08-11T18:16:04;4.18;;;0.90;;
22240;SDS011;11289;52.524;13.694;2022-08-11T18:18:48;5.43;;;1.30;;
22240;SDS011;11289;52.524;13.694;2022-08-11T18:21:32;4.35;;;2.13;;
22240;SDS011;11289;52.524;13.694;2022-08-11T18:24:18;4.68;;;2.05;;
22240;SDS011;11289;52.524;13.694;2022-08-11T18:27:08;2.55;;;1.55;;
22240;SDS011;11289;52.524;13.694;2022-08-11T18:29:56;3.45;;;1.30;;
22240;SDS011;11289;52.524;13.694;2022-08-11T18:32:44;3.83;;;1.55;;
22240;SDS011;11289;52.524;13.694;2022-08-11T18:35:31;3.33;;;1.65;;
22240;SDS011;11289;52.524;13.694;2022-08-11T18:38:16;2.17;;;1.30;;
22240;SDS011;11289;52.524;13.694;2022-08-11T18:41:01;2.75;;;1.80;;
22240;SDS011;11289;52.524;13.694;2022-08-11T18:43:48;6.20;;;1.50;;
22240;SDS011;11289;52.524;13.694;2022-08-11T18:46:33;5.75;;;0.98;;
22240;SDS011;11289;52.524;13.694;2022-08-11T18:49:23;7.65;;;1.38;;
22240;SDS011;11289;52.524;13.694;2022-08-11T18:52:10;4.60;;;1.33;;
22240;SDS011;11289;52.524;13.694;2022-08-11T18:54:57;3.33;;;1.55;;
22240;SDS011;11289;52.524;13.694;2022-08-11T18:57:45;1.70;;;1.00;;
22240;SDS011;11289;52.524;13.694;2022-08-11T19:00:32;5.50;;;1.42;;
22240;SDS011;11289;52.524;13.694;2022-08-11T19:03:18;2.72;;;0.98;;
22240;SDS011;11289;52.524;13.694;2022-08-11T19:06:05;1.65;;;1.00;;
22240;SDS011;11289;52.524;13.694;2022-08-11T19:08:52;4.53;;;1.17;;